WMT769 LIPZ-EPWA
Flight info
| Callsign | WMT769 |
|---|---|
| Flight time | 1h 26m |
| Altitude | 18000 |
| Route | ROSKA M859 BARPI/N0428F350 DCT LAPNA DCT GOLVA DCT LEDVA DCT NETIR DCT ORTEB/N0430F360 DCT KONZI DCT LOGDA |
| Aircraft | A21N/M-SDE1E2E3FGIJ1J4RWXY/LB1 |
Departure
| Time | 2026-05-07 09:20 |
|---|---|
| Airport | Venice Marco Polo Airport (LIPZ) |
Arrival
| Time | 2026-05-07 10:47 |
|---|---|
| Airport | Warsaw Chopin Airport (EPWA) |
| Time | Latitude | Longitude | Altitude | Speed | Heading |
|---|---|---|---|---|---|
| 2026-05-07 08:42 | 45.50178 | 12.34070 | 21 ft | 0 kts | 312° |
| 2026-05-07 09:11 | 45.50167 | 12.34087 | 21 ft | 4 kts | 312° |
| 2026-05-07 09:11 | 45.50152 | 12.34111 | 21 ft | 3 kts | 312° |
| 2026-05-07 09:11 | 45.50140 | 12.34139 | 21 ft | 4 kts | 273° |
| 2026-05-07 09:12 | 45.50145 | 12.34162 | 22 ft | 2 kts | 222° |
| 2026-05-07 09:12 | 45.50138 | 12.34152 | 22 ft | 0 kts | 222° |
| 2026-05-07 09:15 | 45.50133 | 12.34146 | 21 ft | 3 kts | 222° |
| 2026-05-07 09:16 | 45.50108 | 12.34114 | 21 ft | 3 kts | 221° |
| 2026-05-07 09:16 | 45.50084 | 12.34083 | 21 ft | 6 kts | 220° |
| 2026-05-07 09:16 | 45.50039 | 12.34058 | 22 ft | 8 kts | 184° |
| 2026-05-07 09:16 | 45.49981 | 12.34061 | 19 ft | 9 kts | 176° |
| 2026-05-07 09:17 | 45.49913 | 12.34056 | 19 ft | 11 kts | 202° |
| 2026-05-07 09:17 | 45.49847 | 12.33986 | 20 ft | 13 kts | 221° |
| 2026-05-07 09:17 | 45.49779 | 12.33896 | 21 ft | 14 kts | 222° |
| 2026-05-07 09:17 | 45.49701 | 12.33794 | 22 ft | 16 kts | 223° |
| 2026-05-07 09:18 | 45.49613 | 12.33682 | 22 ft | 18 kts | 221° |
| 2026-05-07 09:18 | 45.49551 | 12.33603 | 22 ft | 9 kts | 209° |
| 2026-05-07 09:18 | 45.49492 | 12.33627 | 22 ft | 11 kts | 130° |
| 2026-05-07 09:18 | 45.49442 | 12.33709 | 21 ft | 9 kts | 131° |
| 2026-05-07 09:19 | 45.49428 | 12.33792 | 22 ft | 10 kts | 61° |
| 2026-05-07 09:19 | 45.49480 | 12.33858 | 20 ft | 6 kts | 41° |
| 2026-05-07 09:19 | 45.49500 | 12.33883 | 21 ft | 20 kts | 41° |
| 2026-05-07 09:19 | 45.49791 | 12.34259 | 18 ft | 95 kts | 42° |
| 2026-05-07 09:20 | 45.50456 | 12.35118 | 19 ft | 157 kts | 42° |
| 2026-05-07 09:20 | 45.51348 | 12.36243 | 381 ft | 172 kts | 41° |
| 2026-05-07 09:20 | 45.52193 | 12.37437 | 1052 ft | 171 kts | 47° |
| 2026-05-07 09:20 | 45.53018 | 12.38717 | 1608 ft | 180 kts | 51° |
| 2026-05-07 09:21 | 45.53593 | 12.40343 | 2122 ft | 192 kts | 81° |
| 2026-05-07 09:21 | 45.53533 | 12.42291 | 2684 ft | 204 kts | 100° |
| 2026-05-07 09:21 | 45.53292 | 12.44327 | 3365 ft | 211 kts | 99° |
| 2026-05-07 09:21 | 45.53061 | 12.46423 | 4035 ft | 220 kts | 99° |
| 2026-05-07 09:22 | 45.52828 | 12.48638 | 4572 ft | 236 kts | 99° |
| 2026-05-07 09:22 | 45.52585 | 12.50996 | 5318 ft | 243 kts | 98° |
| 2026-05-07 09:22 | 45.52327 | 12.53393 | 6128 ft | 246 kts | 102° |
| 2026-05-07 09:22 | 45.51633 | 12.55630 | 6780 ft | 254 kts | 129° |
| 2026-05-07 09:23 | 45.50399 | 12.57540 | 7281 ft | 270 kts | 135° |
| 2026-05-07 09:23 | 45.49054 | 12.59498 | 7914 ft | 281 kts | 135° |
| 2026-05-07 09:23 | 45.47689 | 12.61512 | 8671 ft | 285 kts | 134° |
| 2026-05-07 09:23 | 45.46314 | 12.63569 | 9457 ft | 288 kts | 134° |
| 2026-05-07 09:24 | 45.44931 | 12.65653 | 10192 ft | 293 kts | 134° |
| 2026-05-07 09:24 | 45.43490 | 12.67830 | 10595 ft | 311 kts | 134° |
| 2026-05-07 09:24 | 45.41970 | 12.70132 | 10972 ft | 327 kts | 135° |
| 2026-05-07 09:24 | 45.40393 | 12.72523 | 11585 ft | 334 kts | 135° |
| 2026-05-07 09:25 | 45.38800 | 12.74944 | 12297 ft | 337 kts | 135° |
| 2026-05-07 09:25 | 45.37186 | 12.77396 | 13019 ft | 340 kts | 135° |
| 2026-05-07 09:25 | 45.35561 | 12.79863 | 13744 ft | 343 kts | 135° |
| 2026-05-07 09:25 | 45.34006 | 12.82457 | 14407 ft | 347 kts | 126° |
| 2026-05-07 09:26 | 45.33028 | 12.85617 | 15018 ft | 355 kts | 104° |
| 2026-05-07 09:26 | 45.32903 | 12.89146 | 15642 ft | 363 kts | 83° |
| 2026-05-07 09:26 | 45.33647 | 12.92587 | 16268 ft | 369 kts | 63° |
| 2026-05-07 09:26 | 45.35013 | 12.95698 | 16896 ft | 373 kts | 56° |
| 2026-05-07 09:27 | 45.36471 | 12.98774 | 17494 ft | 377 kts | 57° |
| 2026-05-07 09:27 | 45.37893 | 13.01926 | 18077 ft | 380 kts | 59° |
| 2026-05-07 09:27 | 45.40664 | 13.08433 | 19177 ft | 388 kts | 60° |
| 2026-05-07 09:28 | 45.42044 | 13.11752 | 19707 ft | 392 kts | 60° |
| 2026-05-07 09:28 | 45.43434 | 13.15111 | 20218 ft | 395 kts | 60° |
| 2026-05-07 09:28 | 45.44831 | 13.18494 | 20727 ft | 399 kts | 60° |
| 2026-05-07 09:28 | 45.46244 | 13.21919 | 21217 ft | 402 kts | 60° |
| 2026-05-07 09:29 | 45.47666 | 13.25365 | 21692 ft | 406 kts | 60° |
| 2026-05-07 09:29 | 45.49104 | 13.28857 | 22165 ft | 409 kts | 61° |
| 2026-05-07 09:29 | 45.50539 | 13.32373 | 22624 ft | 412 kts | 61° |
| 2026-05-07 09:29 | 45.51982 | 13.35922 | 23067 ft | 416 kts | 61° |
| 2026-05-07 09:30 | 45.53437 | 13.39502 | 23513 ft | 418 kts | 61° |
| 2026-05-07 09:30 | 45.54899 | 13.43108 | 23943 ft | 421 kts | 61° |
| 2026-05-07 09:30 | 45.56364 | 13.46752 | 24361 ft | 424 kts | 62° |
| 2026-05-07 09:30 | 45.57831 | 13.50419 | 24782 ft | 427 kts | 62° |
| 2026-05-07 09:31 | 45.59422 | 13.54016 | 25174 ft | 431 kts | 56° |
| 2026-05-07 09:31 | 45.61146 | 13.57536 | 25571 ft | 433 kts | 56° |
| 2026-05-07 09:31 | 45.62883 | 13.61066 | 25938 ft | 436 kts | 56° |
| 2026-05-07 09:31 | 45.64606 | 13.64569 | 26301 ft | 438 kts | 56° |
| 2026-05-07 09:32 | 45.66382 | 13.68192 | 26666 ft | 441 kts | 56° |
| 2026-05-07 09:32 | 45.68123 | 13.71743 | 27025 ft | 443 kts | 56° |
| 2026-05-07 09:32 | 45.69892 | 13.75357 | 27362 ft | 445 kts | 56° |
| 2026-05-07 09:32 | 45.71675 | 13.79001 | 27700 ft | 448 kts | 56° |
| 2026-05-07 09:33 | 45.73460 | 13.82659 | 28025 ft | 450 kts | 56° |
| 2026-05-07 09:33 | 45.75280 | 13.86399 | 28347 ft | 452 kts | 56° |
| 2026-05-07 09:33 | 45.77056 | 13.90053 | 28650 ft | 454 kts | 56° |
| 2026-05-07 09:33 | 45.78864 | 13.93777 | 28953 ft | 457 kts | 56° |
| 2026-05-07 09:34 | 45.80681 | 13.97519 | 29236 ft | 459 kts | 56° |
| 2026-05-07 09:34 | 45.82508 | 14.01291 | 29516 ft | 461 kts | 56° |
| 2026-05-07 09:34 | 45.84336 | 14.05074 | 29791 ft | 463 kts | 56° |
| 2026-05-07 09:34 | 45.86176 | 14.08885 | 30056 ft | 465 kts | 56° |
| 2026-05-07 09:35 | 45.88022 | 14.12713 | 30331 ft | 467 kts | 57° |
| 2026-05-07 09:35 | 45.89870 | 14.16553 | 30576 ft | 469 kts | 57° |
| 2026-05-07 09:35 | 45.91728 | 14.20418 | 30841 ft | 471 kts | 57° |
| 2026-05-07 09:35 | 45.93592 | 14.24294 | 31085 ft | 472 kts | 57° |
| 2026-05-07 09:36 | 45.95459 | 14.28181 | 31309 ft | 475 kts | 57° |
| 2026-05-07 09:36 | 45.97337 | 14.32099 | 31546 ft | 476 kts | 57° |
| 2026-05-07 09:36 | 45.99214 | 14.36022 | 31770 ft | 477 kts | 57° |
| 2026-05-07 09:36 | 46.01096 | 14.39962 | 31984 ft | 479 kts | 57° |
| 2026-05-07 09:37 | 46.02981 | 14.43914 | 32235 ft | 479 kts | 57° |
| 2026-05-07 09:37 | 46.04862 | 14.47872 | 32512 ft | 478 kts | 57° |
| 2026-05-07 09:37 | 46.06737 | 14.51816 | 32756 ft | 478 kts | 57° |
| 2026-05-07 09:37 | 46.08615 | 14.55770 | 33009 ft | 477 kts | 57° |
| 2026-05-07 09:38 | 46.10487 | 14.59713 | 33248 ft | 477 kts | 57° |
| 2026-05-07 09:38 | 46.12362 | 14.63663 | 33481 ft | 477 kts | 57° |
| 2026-05-07 09:38 | 46.14228 | 14.67607 | 33719 ft | 476 kts | 57° |
| 2026-05-07 09:38 | 46.16085 | 14.71546 | 33928 ft | 476 kts | 57° |
| 2026-05-07 09:39 | 46.17945 | 14.75492 | 34159 ft | 475 kts | 57° |
| 2026-05-07 09:39 | 46.19804 | 14.79433 | 34379 ft | 475 kts | 57° |
| 2026-05-07 09:39 | 46.21657 | 14.83369 | 34595 ft | 474 kts | 57° |
| 2026-05-07 09:39 | 46.23505 | 14.87303 | 34788 ft | 474 kts | 57° |
| 2026-05-07 09:40 | 46.25354 | 14.91244 | 34985 ft | 473 kts | 57° |
| 2026-05-07 09:40 | 46.27195 | 14.95183 | 35175 ft | 473 kts | 57° |
| 2026-05-07 09:40 | 46.29032 | 14.99119 | 35368 ft | 472 kts | 57° |
| 2026-05-07 09:40 | 46.30868 | 15.03049 | 35533 ft | 472 kts | 57° |
| 2026-05-07 09:41 | 46.32710 | 15.06987 | 35681 ft | 472 kts | 57° |
| 2026-05-07 09:41 | 46.34541 | 15.10913 | 35853 ft | 471 kts | 57° |
| 2026-05-07 09:41 | 46.36367 | 15.14836 | 36008 ft | 469 kts | 57° |
| 2026-05-07 09:42 | 46.39996 | 15.22648 | 36020 ft | 467 kts | 57° |
| 2026-05-07 09:42 | 46.43607 | 15.30459 | 36005 ft | 466 kts | 57° |
| 2026-05-07 09:43 | 46.47193 | 15.38224 | 36003 ft | 466 kts | 57° |
| 2026-05-07 09:43 | 46.50792 | 15.46045 | 35994 ft | 466 kts | 57° |
| 2026-05-07 09:44 | 46.55147 | 15.52984 | 35983 ft | 467 kts | 37° |
| 2026-05-07 09:44 | 46.60759 | 15.57672 | 35993 ft | 466 kts | 26° |
| 2026-05-07 09:45 | 46.66544 | 15.61945 | 35990 ft | 467 kts | 26° |
| 2026-05-07 09:45 | 46.72384 | 15.66049 | 35987 ft | 466 kts | 20° |
| 2026-05-07 09:46 | 46.78465 | 15.69364 | 35987 ft | 466 kts | 19° |
| 2026-05-07 09:46 | 46.84546 | 15.72669 | 35981 ft | 466 kts | 19° |
| 2026-05-07 09:47 | 46.90626 | 15.75961 | 35977 ft | 467 kts | 19° |
| 2026-05-07 09:47 | 46.96715 | 15.79278 | 35971 ft | 467 kts | 20° |
| 2026-05-07 09:48 | 47.02790 | 15.82635 | 35971 ft | 467 kts | 20° |
| 2026-05-07 09:48 | 47.08875 | 15.85954 | 35970 ft | 466 kts | 19° |
| 2026-05-07 09:49 | 47.13932 | 15.88714 | 35969 ft | 466 kts | 19° |
| 2026-05-07 09:49 | 47.20009 | 15.92039 | 35970 ft | 466 kts | 20° |
| 2026-05-07 09:50 | 47.26085 | 15.95432 | 35974 ft | 467 kts | 20° |
| 2026-05-07 09:50 | 47.32161 | 15.98794 | 35979 ft | 467 kts | 19° |
| 2026-05-07 09:51 | 47.38258 | 16.02125 | 35983 ft | 467 kts | 19° |
| 2026-05-07 09:51 | 47.44328 | 16.05511 | 35982 ft | 466 kts | 20° |
| 2026-05-07 09:52 | 47.50397 | 16.08869 | 35995 ft | 466 kts | 20° |
| 2026-05-07 09:52 | 47.56470 | 16.12249 | 35991 ft | 466 kts | 20° |
| 2026-05-07 09:53 | 47.62539 | 16.15647 | 35989 ft | 466 kts | 20° |
| 2026-05-07 09:53 | 47.68605 | 16.19054 | 35983 ft | 467 kts | 20° |
| 2026-05-07 09:54 | 47.74680 | 16.22473 | 35993 ft | 467 kts | 20° |
| 2026-05-07 09:54 | 47.80753 | 16.25891 | 35991 ft | 467 kts | 20° |
| 2026-05-07 09:55 | 47.86827 | 16.29323 | 35985 ft | 467 kts | 20° |
| 2026-05-07 09:55 | 47.92897 | 16.32758 | 35991 ft | 467 kts | 20° |
| 2026-05-07 09:56 | 47.98969 | 16.36212 | 35990 ft | 467 kts | 20° |
| 2026-05-07 09:56 | 48.05035 | 16.39664 | 35985 ft | 467 kts | 20° |
| 2026-05-07 09:57 | 48.11093 | 16.43125 | 35990 ft | 466 kts | 20° |
| 2026-05-07 09:57 | 48.17153 | 16.46595 | 35992 ft | 466 kts | 20° |
| 2026-05-07 09:58 | 48.23218 | 16.50073 | 35992 ft | 466 kts | 20° |
| 2026-05-07 09:58 | 48.29272 | 16.53556 | 35994 ft | 466 kts | 20° |
| 2026-05-07 09:59 | 48.35320 | 16.57047 | 35994 ft | 465 kts | 20° |
| 2026-05-07 09:59 | 48.41321 | 16.60517 | 35987 ft | 465 kts | 20° |
| 2026-05-07 10:00 | 48.47369 | 16.64028 | 35987 ft | 466 kts | 20° |
| 2026-05-07 10:00 | 48.53412 | 16.67538 | 35993 ft | 465 kts | 20° |
| 2026-05-07 10:01 | 48.59450 | 16.71058 | 35988 ft | 465 kts | 20° |
| 2026-05-07 10:01 | 48.65480 | 16.74578 | 35981 ft | 465 kts | 20° |
| 2026-05-07 10:02 | 48.71401 | 16.78495 | 35969 ft | 466 kts | 31° |
| 2026-05-07 10:02 | 48.73995 | 16.81421 | 35968 ft | 465 kts | 43° |
| 2026-05-07 10:02 | 48.76172 | 16.85030 | 35975 ft | 464 kts | 52° |
| 2026-05-07 10:03 | 48.80128 | 16.92765 | 35966 ft | 464 kts | 53° |
| 2026-05-07 10:03 | 48.84088 | 17.00519 | 35959 ft | 464 kts | 53° |
| 2026-05-07 10:04 | 48.88075 | 17.08227 | 35960 ft | 464 kts | 53° |
| 2026-05-07 10:04 | 48.92026 | 17.15901 | 35951 ft | 463 kts | 53° |
| 2026-05-07 10:05 | 48.95995 | 17.23683 | 35946 ft | 463 kts | 53° |
| 2026-05-07 10:05 | 48.99952 | 17.31418 | 35941 ft | 463 kts | 53° |
| 2026-05-07 10:06 | 49.03874 | 17.39103 | 35940 ft | 463 kts | 53° |
| 2026-05-07 10:06 | 49.07867 | 17.46878 | 35936 ft | 463 kts | 53° |
| 2026-05-07 10:07 | 49.11780 | 17.54577 | 35941 ft | 462 kts | 53° |
| 2026-05-07 10:07 | 49.15710 | 17.62350 | 35952 ft | 462 kts | 53° |
| 2026-05-07 10:08 | 49.19636 | 17.70131 | 35961 ft | 462 kts | 53° |
| 2026-05-07 10:08 | 49.23553 | 17.77912 | 35959 ft | 462 kts | 53° |
| 2026-05-07 10:09 | 49.27463 | 17.85709 | 35959 ft | 462 kts | 53° |
| 2026-05-07 10:09 | 49.31367 | 17.93526 | 35953 ft | 462 kts | 53° |
| 2026-05-07 10:10 | 49.35258 | 18.01344 | 35950 ft | 461 kts | 53° |
| 2026-05-07 10:10 | 49.39155 | 18.09163 | 35950 ft | 461 kts | 53° |
| 2026-05-07 10:11 | 49.43040 | 18.16977 | 35952 ft | 460 kts | 53° |
| 2026-05-07 10:11 | 49.46918 | 18.24822 | 35950 ft | 461 kts | 53° |
| 2026-05-07 10:12 | 49.50786 | 18.32668 | 35937 ft | 460 kts | 53° |
| 2026-05-07 10:12 | 49.54623 | 18.40475 | 35941 ft | 460 kts | 54° |
| 2026-05-07 10:13 | 49.58480 | 18.48351 | 35941 ft | 461 kts | 54° |
| 2026-05-07 10:13 | 49.62324 | 18.56257 | 35950 ft | 460 kts | 54° |
| 2026-05-07 10:14 | 49.66158 | 18.64149 | 35949 ft | 460 kts | 54° |
| 2026-05-07 10:14 | 49.69702 | 18.72349 | 35949 ft | 458 kts | 66° |
| 2026-05-07 10:15 | 49.71912 | 18.81532 | 35960 ft | 456 kts | 73° |
| 2026-05-07 10:15 | 49.73981 | 18.90801 | 35959 ft | 456 kts | 72° |
| 2026-05-07 10:16 | 49.76089 | 19.00067 | 35953 ft | 456 kts | 72° |
| 2026-05-07 10:16 | 49.78183 | 19.09332 | 35948 ft | 456 kts | 72° |
| 2026-05-07 10:17 | 49.80266 | 19.18603 | 35948 ft | 456 kts | 72° |
| 2026-05-07 10:17 | 49.82329 | 19.27869 | 35937 ft | 456 kts | 72° |
| 2026-05-07 10:18 | 49.84392 | 19.37141 | 35933 ft | 455 kts | 72° |
| 2026-05-07 10:18 | 49.85597 | 19.41687 | 35916 ft | 455 kts | 61° |
| 2026-05-07 10:18 | 49.87495 | 19.45588 | 35914 ft | 456 kts | 45° |
| 2026-05-07 10:18 | 49.89985 | 19.48617 | 35918 ft | 455 kts | 30° |
| 2026-05-07 10:19 | 49.92775 | 19.50917 | 35929 ft | 455 kts | 26° |
| 2026-05-07 10:19 | 49.98443 | 19.55328 | 35917 ft | 455 kts | 26° |
| 2026-05-07 10:20 | 50.04064 | 19.59845 | 35909 ft | 454 kts | 27° |
| 2026-05-07 10:20 | 50.09646 | 19.64397 | 35907 ft | 452 kts | 27° |
| 2026-05-07 10:20 | 50.12421 | 19.66656 | 35770 ft | 448 kts | 27° |
| 2026-05-07 10:21 | 50.15186 | 19.68905 | 35480 ft | 449 kts | 27° |
| 2026-05-07 10:21 | 50.17951 | 19.71161 | 35221 ft | 448 kts | 27° |
| 2026-05-07 10:21 | 50.20704 | 19.73412 | 34967 ft | 446 kts | 27° |
| 2026-05-07 10:21 | 50.23452 | 19.75662 | 34711 ft | 444 kts | 27° |
| 2026-05-07 10:22 | 50.26182 | 19.77899 | 34464 ft | 443 kts | 27° |
| 2026-05-07 10:22 | 50.28901 | 19.80134 | 34217 ft | 441 kts | 27° |
| 2026-05-07 10:22 | 50.31609 | 19.82360 | 33969 ft | 439 kts | 27° |
| 2026-05-07 10:22 | 50.34307 | 19.84579 | 33714 ft | 438 kts | 27° |
| 2026-05-07 10:23 | 50.36997 | 19.86795 | 33468 ft | 436 kts | 27° |
| 2026-05-07 10:23 | 50.39686 | 19.89015 | 33214 ft | 435 kts | 27° |
| 2026-05-07 10:23 | 50.42355 | 19.91221 | 32964 ft | 434 kts | 27° |
| 2026-05-07 10:23 | 50.45019 | 19.93427 | 32714 ft | 433 kts | 27° |
| 2026-05-07 10:24 | 50.47678 | 19.95628 | 32323 ft | 430 kts | 27° |
| 2026-05-07 10:24 | 50.50313 | 19.97811 | 31813 ft | 427 kts | 27° |
| 2026-05-07 10:24 | 50.52937 | 19.99991 | 31262 ft | 426 kts | 27° |
| 2026-05-07 10:24 | 50.55559 | 20.02171 | 30708 ft | 425 kts | 27° |
| 2026-05-07 10:25 | 50.58167 | 20.04342 | 30180 ft | 424 kts | 27° |
| 2026-05-07 10:25 | 50.60769 | 20.06511 | 29649 ft | 422 kts | 27° |
| 2026-05-07 10:25 | 50.63356 | 20.08671 | 29095 ft | 421 kts | 27° |
| 2026-05-07 10:25 | 50.65947 | 20.10836 | 28554 ft | 420 kts | 27° |
| 2026-05-07 10:26 | 50.68517 | 20.12987 | 28025 ft | 418 kts | 27° |
| 2026-05-07 10:26 | 50.71086 | 20.15140 | 27499 ft | 416 kts | 27° |
| 2026-05-07 10:26 | 50.73625 | 20.17275 | 26971 ft | 414 kts | 27° |
| 2026-05-07 10:26 | 50.76177 | 20.19418 | 26418 ft | 413 kts | 27° |
| 2026-05-07 10:27 | 50.78708 | 20.21545 | 25889 ft | 411 kts | 27° |
| 2026-05-07 10:27 | 50.81223 | 20.23663 | 25391 ft | 407 kts | 27° |
| 2026-05-07 10:27 | 50.83679 | 20.25733 | 24898 ft | 403 kts | 27° |
| 2026-05-07 10:27 | 50.86171 | 20.27837 | 24364 ft | 400 kts | 27° |
| 2026-05-07 10:28 | 50.88611 | 20.29898 | 23842 ft | 396 kts | 27° |
| 2026-05-07 10:28 | 50.90999 | 20.31918 | 23348 ft | 392 kts | 27° |
| 2026-05-07 10:28 | 50.93385 | 20.33939 | 22857 ft | 388 kts | 27° |
| 2026-05-07 10:28 | 50.95786 | 20.35977 | 22357 ft | 384 kts | 27° |
| 2026-05-07 10:29 | 50.98099 | 20.37940 | 21845 ft | 381 kts | 27° |
| 2026-05-07 10:29 | 51.00429 | 20.39920 | 21357 ft | 378 kts | 27° |
| 2026-05-07 10:29 | 51.02733 | 20.41882 | 20853 ft | 374 kts | 27° |
| 2026-05-07 10:30 | 51.07282 | 20.45760 | 19907 ft | 367 kts | 27° |
| 2026-05-07 10:30 | 51.09520 | 20.47671 | 19451 ft | 363 kts | 27° |
| 2026-05-07 10:30 | 51.11731 | 20.49561 | 19001 ft | 359 kts | 27° |
| 2026-05-07 10:30 | 51.13923 | 20.51436 | 18548 ft | 355 kts | 27° |
| 2026-05-07 10:31 | 51.16080 | 20.53284 | 18127 ft | 350 kts | 27° |
| 2026-05-07 10:31 | 51.18213 | 20.55120 | 17718 ft | 346 kts | 28° |
| 2026-05-07 10:31 | 51.20315 | 20.56925 | 17306 ft | 341 kts | 27° |
| 2026-05-07 10:31 | 51.22395 | 20.58710 | 16906 ft | 339 kts | 27° |
| 2026-05-07 10:32 | 51.24472 | 20.60496 | 16499 ft | 339 kts | 27° |
| 2026-05-07 10:32 | 51.26545 | 20.62280 | 16118 ft | 339 kts | 28° |
| 2026-05-07 10:32 | 51.28623 | 20.64071 | 15742 ft | 339 kts | 28° |
| 2026-05-07 10:32 | 51.30694 | 20.65860 | 15368 ft | 339 kts | 28° |
| 2026-05-07 10:33 | 51.32773 | 20.67658 | 14990 ft | 340 kts | 28° |
| 2026-05-07 10:33 | 51.34857 | 20.69461 | 14576 ft | 341 kts | 28° |
| 2026-05-07 10:33 | 51.36948 | 20.71268 | 14164 ft | 343 kts | 28° |
| 2026-05-07 10:33 | 51.39045 | 20.73081 | 13757 ft | 340 kts | 28° |
| 2026-05-07 10:34 | 51.41110 | 20.74871 | 13357 ft | 335 kts | 28° |
| 2026-05-07 10:34 | 51.43140 | 20.76634 | 12967 ft | 330 kts | 28° |
| 2026-05-07 10:34 | 51.45140 | 20.78374 | 12578 ft | 324 kts | 28° |
| 2026-05-07 10:34 | 51.47107 | 20.80087 | 12185 ft | 320 kts | 28° |
| 2026-05-07 10:35 | 51.49049 | 20.81779 | 11789 ft | 316 kts | 28° |
| 2026-05-07 10:35 | 51.50964 | 20.83450 | 11402 ft | 311 kts | 28° |
| 2026-05-07 10:35 | 51.52865 | 20.85107 | 11022 ft | 311 kts | 28° |
| 2026-05-07 10:35 | 51.54774 | 20.86774 | 10641 ft | 312 kts | 28° |
| 2026-05-07 10:36 | 51.56680 | 20.88441 | 10266 ft | 313 kts | 28° |
| 2026-05-07 10:36 | 51.58570 | 20.90094 | 9907 ft | 312 kts | 28° |
| 2026-05-07 10:36 | 51.59848 | 20.91214 | 9718 ft | 307 kts | 28° |
| 2026-05-07 10:36 | 51.61701 | 20.92840 | 9357 ft | 302 kts | 28° |
| 2026-05-07 10:37 | 51.64144 | 20.94986 | 8825 ft | 303 kts | 28° |
| 2026-05-07 10:37 | 51.65993 | 20.96614 | 8435 ft | 301 kts | 28° |
| 2026-05-07 10:37 | 51.67821 | 20.98223 | 8038 ft | 298 kts | 28° |
| 2026-05-07 10:37 | 51.69631 | 20.99814 | 7672 ft | 294 kts | 28° |
| 2026-05-07 10:38 | 51.71412 | 21.01381 | 7306 ft | 292 kts | 28° |
| 2026-05-07 10:38 | 51.72618 | 21.02445 | 7048 ft | 292 kts | 28° |
| 2026-05-07 10:38 | 51.74392 | 21.04010 | 6673 ft | 292 kts | 28° |
| 2026-05-07 10:38 | 51.76170 | 21.05578 | 6320 ft | 288 kts | 28° |
| 2026-05-07 10:39 | 51.77918 | 21.07122 | 5971 ft | 285 kts | 28° |
| 2026-05-07 10:39 | 51.79645 | 21.08650 | 5619 ft | 283 kts | 28° |
| 2026-05-07 10:39 | 51.81368 | 21.10175 | 5277 ft | 281 kts | 28° |
| 2026-05-07 10:39 | 51.83080 | 21.11691 | 4930 ft | 281 kts | 28° |
| 2026-05-07 10:40 | 51.84792 | 21.13209 | 4591 ft | 277 kts | 28° |
| 2026-05-07 10:40 | 51.86459 | 21.14677 | 4391 ft | 267 kts | 28° |
| 2026-05-07 10:40 | 51.88041 | 21.16071 | 4366 ft | 250 kts | 28° |
| 2026-05-07 10:40 | 51.89541 | 21.17388 | 4449 ft | 244 kts | 26° |
| 2026-05-07 10:41 | 51.91126 | 21.18181 | 4360 ft | 242 kts | 360° |
| 2026-05-07 10:41 | 51.92749 | 21.17687 | 4160 ft | 234 kts | 336° |
| 2026-05-07 10:41 | 51.94175 | 21.16570 | 3974 ft | 222 kts | 328° |
| 2026-05-07 10:41 | 51.95474 | 21.15327 | 3746 ft | 213 kts | 327° |
| 2026-05-07 10:42 | 51.96755 | 21.14087 | 3399 ft | 211 kts | 328° |
| 2026-05-07 10:42 | 51.98001 | 21.12909 | 3087 ft | 210 kts | 329° |
| 2026-05-07 10:42 | 51.99287 | 21.11772 | 2994 ft | 210 kts | 330° |
| 2026-05-07 10:42 | 52.00574 | 21.10650 | 2993 ft | 210 kts | 330° |
| 2026-05-07 10:43 | 52.01859 | 21.09532 | 2995 ft | 209 kts | 330° |
| 2026-05-07 10:43 | 52.03132 | 21.08427 | 2993 ft | 201 kts | 330° |
| 2026-05-07 10:43 | 52.04308 | 21.07405 | 2879 ft | 185 kts | 330° |
| 2026-05-07 10:43 | 52.05405 | 21.06450 | 2636 ft | 173 kts | 330° |
| 2026-05-07 10:44 | 52.06448 | 21.05542 | 2385 ft | 167 kts | 330° |
| 2026-05-07 10:44 | 52.07446 | 21.04673 | 2156 ft | 158 kts | 330° |
| 2026-05-07 10:44 | 52.08400 | 21.03843 | 1941 ft | 150 kts | 330° |
| 2026-05-07 10:44 | 52.09306 | 21.03052 | 1734 ft | 149 kts | 330° |
| 2026-05-07 10:45 | 52.10218 | 21.02258 | 1537 ft | 148 kts | 330° |
| 2026-05-07 10:45 | 52.11125 | 21.01467 | 1355 ft | 147 kts | 330° |
| 2026-05-07 10:45 | 52.12026 | 21.00679 | 1145 ft | 147 kts | 330° |
| 2026-05-07 10:45 | 52.12925 | 20.99895 | 953 ft | 146 kts | 330° |
| 2026-05-07 10:46 | 52.13823 | 20.99116 | 772 ft | 146 kts | 332° |
| 2026-05-07 10:46 | 52.14720 | 20.98338 | 575 ft | 146 kts | 330° |
| 2026-05-07 10:46 | 52.15613 | 20.97553 | 375 ft | 146 kts | 331° |
| 2026-05-07 10:46 | 52.16441 | 20.96828 | 345 ft | 112 kts | 331° |
| 2026-05-07 10:47 | 52.16925 | 20.96403 | 348 ft | 38 kts | 332° |
| 2026-05-07 10:47 | 52.17149 | 20.96235 | 348 ft | 32 kts | 351° |
| 2026-05-07 10:47 | 52.17316 | 20.96243 | 351 ft | 15 kts | 3° |
| 2026-05-07 10:47 | 52.17395 | 20.96289 | 350 ft | 9 kts | 55° |
| 2026-05-07 10:48 | 52.17401 | 20.96303 | 348 ft | 0 kts | 58° |
| 2026-05-07 10:48 | 52.17401 | 20.96304 | 344 ft | 1 kts | 58° |
| 2026-05-07 10:48 | 52.17416 | 20.96344 | 347 ft | 7 kts | 60° |
| 2026-05-07 10:49 | 52.17444 | 20.96429 | 350 ft | 10 kts | 62° |
| 2026-05-07 10:49 | 52.17480 | 20.96533 | 351 ft | 10 kts | 52° |
| 2026-05-07 10:49 | 52.17538 | 20.96556 | 351 ft | 8 kts | 333° |
| 2026-05-07 10:49 | 52.17588 | 20.96511 | 348 ft | 5 kts | 331° |
| 2026-05-07 10:50 | 52.17592 | 20.96507 | 347 ft | 0 kts | 331° |
| 2026-05-07 10:51 | 52.17609 | 20.96492 | 352 ft | 11 kts | 332° |
| 2026-05-07 10:51 | 52.17672 | 20.96437 | 344 ft | 5 kts | 332° |
| 2026-05-07 10:51 | 52.17685 | 20.96385 | 351 ft | 7 kts | 256° |
| 2026-05-07 10:51 | 52.17669 | 20.96331 | 349 ft | 4 kts | 240° |
| 2026-05-07 10:52 | 52.17657 | 20.96296 | 344 ft | 3 kts | 242° |
| 2026-05-07 10:52 | 52.17656 | 20.96293 | 353 ft | 0 kts | 242° |